createdAt,value
2023-05-03T00:02:27.141Z,98979.84
2023-05-03T00:04:59.702Z,98975.88
2023-05-03T00:07:31.986Z,98973.63
2023-05-03T00:10:04.570Z,98975.36
2023-05-03T00:12:37.244Z,98978.84
2023-05-03T00:15:11.540Z,98982.28
2023-05-03T00:17:46.998Z,98976.49
2023-05-03T00:20:19.411Z,98975.77
2023-05-03T00:22:51.958Z,98971.83
2023-05-03T00:25:24.448Z,98972.70
2023-05-03T00:27:57.651Z,98972.70
2023-05-03T00:30:29.836Z,98970.82
2023-05-03T00:33:02.281Z,98970.92
2023-05-03T00:35:34.483Z,98972.92
2023-05-03T00:38:09.000Z,98978.00
2023-05-03T00:40:43.221Z,98972.09
2023-05-03T00:43:15.639Z,98969.17
2023-05-03T00:45:47.882Z,98967.05
2023-05-03T00:48:20.100Z,98964.34
2023-05-03T00:50:54.487Z,98969.73
2023-05-03T00:53:27.445Z,98973.28
2023-05-03T00:56:02.144Z,98969.12
2023-05-03T00:58:40.531Z,98967.77
2023-05-03T01:01:13.181Z,98965.23
2023-05-03T01:03:46.828Z,98971.20
2023-05-03T01:06:36.493Z,98971.11
2023-05-03T01:09:13.943Z,98969.61
2023-05-03T01:11:56.411Z,98972.16
2023-05-03T01:14:37.788Z,98969.87
2023-05-03T01:17:13.305Z,98971.42
2023-05-03T01:19:50.223Z,98978.35
2023-05-03T01:22:34.225Z,98968.04
2023-05-03T01:25:10.408Z,98968.80
2023-05-03T01:27:43.388Z,98970.91
2023-05-03T01:30:16.226Z,98971.38
2023-05-03T01:33:04.838Z,98978.62
2023-05-03T01:35:42.359Z,98979.88
2023-05-03T01:38:15.373Z,98983.98
2023-05-03T01:40:52.442Z,98984.35
2023-05-03T01:43:25.856Z,98981.41
2023-05-03T01:46:03.850Z,98984.76
2023-05-03T01:48:36.153Z,98983.81
2023-05-03T01:51:08.485Z,98988.40
2023-05-03T01:53:41.968Z,98987.38
2023-05-03T01:56:14.076Z,98989.19
2023-05-03T01:58:46.325Z,98990.36
2023-05-03T02:01:18.568Z,98995.78
2023-05-03T02:03:50.727Z,98996.23
2023-05-03T02:06:22.911Z,98997.08
2023-05-03T02:08:55.582Z,98998.20
2023-05-03T02:11:28.034Z,98999.23
2023-05-03T02:14:00.248Z,98999.42
2023-05-03T02:16:33.125Z,98995.41
2023-05-03T02:19:05.598Z,98993.33
2023-05-03T02:21:39.310Z,98995.11
2023-05-03T02:24:11.686Z,98991.92
2023-05-03T02:26:43.973Z,98993.80
2023-05-03T02:29:16.350Z,98997.61
2023-05-03T02:31:48.743Z,98998.77
2023-05-03T02:34:22.070Z,99002.78
2023-05-03T02:37:02.243Z,99006.52
2023-05-03T02:39:35.042Z,99006.23
2023-05-03T02:42:07.934Z,99009.05
2023-05-03T02:44:40.021Z,99011.69
2023-05-03T02:47:13.862Z,99012.45
2023-05-03T02:49:46.591Z,99016.57
2023-05-03T02:52:18.736Z,99019.18
2023-05-03T02:54:50.980Z,99019.56
2023-05-03T02:57:23.220Z,99019.48
2023-05-03T02:59:55.681Z,99019.40
2023-05-03T03:02:28.475Z,99019.26
2023-05-03T03:05:01.109Z,99019.13
2023-05-03T03:07:38.372Z,99024.58
2023-05-03T03:10:12.462Z,99028.50
2023-05-03T03:12:44.602Z,99029.45
2023-05-03T03:15:18.551Z,99034.56
2023-05-03T03:17:51.062Z,99036.80
2023-05-03T03:20:25.982Z,99039.20
2023-05-03T03:22:58.404Z,99034.58
2023-05-03T03:25:32.180Z,99035.66
2023-05-03T03:28:04.372Z,99033.27
2023-05-03T03:30:37.046Z,99031.80
2023-05-03T03:33:22.098Z,99030.08
2023-05-03T03:35:56.278Z,99029.34
2023-05-03T03:38:28.701Z,99029.62
2023-05-03T03:41:03.359Z,99034.16
2023-05-03T03:43:35.603Z,99037.25
2023-05-03T03:46:09.664Z,99039.10
2023-05-03T03:48:41.960Z,99043.31
2023-05-03T03:51:14.461Z,99049.98
2023-05-03T03:53:52.637Z,99053.21
2023-05-03T03:56:26.463Z,99055.94
2023-05-03T03:58:59.282Z,99059.31
2023-05-03T04:01:31.945Z,99062.46
2023-05-03T04:04:04.576Z,99064.52
2023-05-03T04:06:37.200Z,99065.25
2023-05-03T04:09:14.022Z,99068.05
2023-05-03T04:11:46.198Z,99075.36
2023-05-03T04:14:18.630Z,99080.05
2023-05-03T04:16:51.379Z,99081.56
2023-05-03T04:19:25.478Z,99078.55
2023-05-03T04:21:58.404Z,99080.34
2023-05-03T04:24:30.660Z,99082.89
2023-05-03T04:27:04.730Z,99083.70
2023-05-03T04:29:38.863Z,99084.41
2023-05-03T04:32:11.573Z,99083.85
2023-05-03T04:34:49.050Z,99086.40
2023-05-03T04:37:24.793Z,99090.23
2023-05-03T04:39:57.056Z,99093.73
2023-05-03T04:42:29.346Z,99098.67
2023-05-03T04:45:03.262Z,99102.92
2023-05-03T04:47:36.022Z,99104.46
2023-05-03T04:50:11.392Z,99103.05
2023-05-03T04:52:45.931Z,99106.55
2023-05-03T04:55:18.357Z,99105.84
2023-05-03T04:57:51.075Z,99106.58
2023-05-03T05:00:23.781Z,99105.31
2023-05-03T05:03:01.504Z,99105.70
2023-05-03T05:05:35.445Z,99112.73
2023-05-03T05:08:08.174Z,99111.82
2023-05-03T05:10:47.762Z,99109.11
2023-05-03T05:13:22.215Z,99112.03
2023-05-03T05:15:54.465Z,99112.17
2023-05-03T05:18:27.540Z,99114.45
2023-05-03T05:21:00.485Z,99118.64
2023-05-03T05:23:32.922Z,99115.46
2023-05-03T05:26:08.528Z,99118.16
2023-05-03T05:28:42.107Z,99118.20
2023-05-03T05:31:15.725Z,99127.42
2023-05-03T05:33:48.677Z,99126.84
2023-05-03T05:36:22.164Z,99129.45
2023-05-03T05:38:55.131Z,99137.11
2023-05-03T05:41:27.518Z,99141.58
2023-05-03T05:44:01.657Z,99140.77
2023-05-03T05:46:34.967Z,99139.34
2023-05-03T05:49:08.397Z,99141.80
2023-05-03T05:51:41.614Z,99138.07
2023-05-03T05:54:16.435Z,99144.11
2023-05-03T05:56:50.290Z,99148.70
2023-05-03T05:59:22.698Z,99149.95
2023-05-03T06:02:00.562Z,99155.60
2023-05-03T06:04:33.389Z,99156.14
2023-05-03T06:07:09.503Z,99157.54
2023-05-03T06:09:43.978Z,99164.13
2023-05-03T06:12:16.221Z,99165.27
2023-05-03T06:15:01.540Z,99165.38
2023-05-03T06:17:39.046Z,99168.98
2023-05-03T06:20:13.032Z,99170.43
2023-05-03T06:25:59.085Z,99168.02
2023-05-03T06:28:31.924Z,99172.70
2023-05-03T06:31:07.349Z,99169.02
2023-05-03T06:33:41.684Z,99174.39
2023-05-03T06:36:15.224Z,99174.20
2023-05-03T06:38:47.898Z,99174.66
2023-05-03T06:41:20.105Z,99177.77
2023-05-03T06:43:53.009Z,99185.20
2023-05-03T06:46:25.589Z,99183.66
2023-05-03T06:48:58.048Z,99187.89
2023-05-03T06:51:33.321Z,99188.45
2023-05-03T06:54:09.806Z,99186.60
2023-05-03T06:56:42.039Z,99195.63
2023-05-03T06:59:14.129Z,99199.00
2023-05-03T07:01:47.242Z,99201.43
2023-05-03T07:04:20.110Z,99202.23
2023-05-03T07:06:56.528Z,99200.23
2023-05-03T07:09:42.774Z,99206.06
2023-05-03T07:12:16.596Z,99208.41
2023-05-03T07:14:49.131Z,99213.48
2023-05-03T07:17:21.707Z,99214.33
2023-05-03T07:19:54.272Z,99215.79
2023-05-03T07:22:27.557Z,99217.41
2023-05-03T07:25:00.244Z,99214.94
2023-05-03T07:27:32.564Z,99220.63
2023-05-03T07:30:05.203Z,99217.81
2023-05-03T07:32:37.842Z,99221.96
2023-05-03T07:35:11.323Z,99222.73
2023-05-03T07:37:43.486Z,99227.10
2023-05-03T07:40:16.192Z,99223.25
2023-05-03T07:42:51.016Z,99226.83
2023-05-03T07:45:23.512Z,99227.48
2023-05-03T07:47:56.647Z,99221.45
2023-05-03T07:50:29.757Z,99223.31
2023-05-03T07:53:01.962Z,99221.73
2023-05-03T07:55:36.614Z,99217.24
2023-05-03T07:58:08.882Z,99219.55
2023-05-03T08:00:41.484Z,99219.05
2023-05-03T08:03:14.260Z,99214.67
2023-05-03T08:05:48.350Z,99213.92
2023-05-03T08:08:21.109Z,99212.56
2023-05-03T08:10:56.607Z,99200.08
2023-05-03T08:13:28.839Z,99193.19
2023-05-03T08:16:01.205Z,99197.51
2023-05-03T08:18:33.901Z,99193.45
2023-05-03T08:21:06.440Z,99203.02
2023-05-03T08:23:38.674Z,99197.26
2023-05-03T08:26:14.506Z,99202.30
2023-05-03T08:28:47.048Z,99203.23
2023-05-03T08:31:19.263Z,99210.77
2023-05-03T08:33:54.088Z,99210.59
2023-05-03T08:36:26.331Z,99215.14
2023-05-03T08:39:00.166Z,99213.08
2023-05-03T08:41:34.879Z,99214.58
2023-05-03T08:44:09.292Z,99210.20
2023-05-03T08:46:44.459Z,99207.88
2023-05-03T08:49:18.044Z,99211.77
2023-05-03T08:51:50.885Z,99213.18
2023-05-03T08:54:24.333Z,99217.39
2023-05-03T08:56:56.839Z,99220.77
2023-05-03T08:59:29.944Z,99226.59
2023-05-03T09:02:09.515Z,99229.13
2023-05-03T09:04:41.903Z,99232.52
2023-05-03T09:07:15.946Z,99235.55
2023-05-03T09:09:48.340Z,99233.52
2023-05-03T09:12:37.095Z,99233.35
2023-05-03T09:15:21.976Z,99239.06
2023-05-03T09:18:10.705Z,99224.88
2023-05-03T09:20:51.943Z,99230.58
2023-05-03T09:23:34.307Z,99228.27
2023-05-03T09:26:07.527Z,99233.08
2023-05-03T09:28:45.536Z,99236.38
2023-05-03T09:31:17.822Z,99239.50
2023-05-03T09:34:01.000Z,99244.65
2023-05-03T09:36:56.761Z,99248.15
2023-05-03T09:39:36.975Z,99243.54
2023-05-03T09:42:17.288Z,99244.70
2023-05-03T09:44:52.008Z,99241.80
2023-05-03T09:47:25.650Z,99248.70
2023-05-03T09:49:58.204Z,99255.18
2023-05-03T09:52:32.231Z,99250.16
2023-05-03T09:55:04.702Z,99251.09
2023-05-03T09:57:38.740Z,99253.16
2023-05-03T10:00:13.921Z,99251.32
2023-05-03T10:02:47.634Z,99248.17
2023-05-03T10:05:22.167Z,99250.55
2023-05-03T10:07:56.857Z,99249.44
2023-05-03T10:10:33.094Z,99243.19
2023-05-03T10:13:10.712Z,99244.42
2023-05-03T10:15:45.469Z,99240.19
2023-05-03T10:18:25.203Z,99237.96
2023-05-03T10:21:03.026Z,99239.80
2023-05-03T10:23:35.237Z,99239.38
2023-05-03T10:26:19.631Z,99240.86
2023-05-03T10:28:51.843Z,99239.20
2023-05-03T10:31:46.564Z,99234.17
2023-05-03T10:34:26.554Z,99228.13
2023-05-03T10:37:02.110Z,99220.90
2023-05-03T10:39:34.919Z,99223.02
2023-05-03T10:42:10.494Z,99213.54
2023-05-03T10:44:52.604Z,99212.26
2023-05-03T10:47:28.846Z,99214.33
2023-05-03T10:50:27.093Z,99216.85
2023-05-03T10:53:02.128Z,99214.23
2023-05-03T10:55:35.974Z,99218.87
2023-05-03T10:58:14.457Z,99214.63
2023-05-03T11:00:48.218Z,99212.55
2023-05-03T11:03:36.462Z,99214.11
2023-05-03T11:06:09.313Z,99210.35
2023-05-03T11:08:51.018Z,99211.37
2023-05-03T11:11:25.823Z,99203.27
2023-05-03T11:13:58.125Z,99203.55
2023-05-03T11:16:31.166Z,99204.29
2023-05-03T11:19:06.092Z,99205.56
2023-05-03T11:21:44.886Z,99206.84
2023-05-03T11:24:21.191Z,99207.80
2023-05-03T11:26:53.641Z,99212.60
2023-05-03T11:29:28.766Z,99211.55
2023-05-03T11:32:01.799Z,99206.94
2023-05-03T11:34:34.453Z,99200.95
2023-05-03T11:37:09.541Z,99198.71
2023-05-03T11:42:59.069Z,99198.77
2023-05-03T11:45:39.799Z,99183.52
2023-05-03T11:48:13.058Z,99184.80
2023-05-03T11:50:51.683Z,99174.41
2023-05-03T11:53:25.464Z,99168.05
2023-05-03T11:55:59.251Z,99166.45
2023-05-03T11:58:32.260Z,99167.99
2023-05-03T12:01:06.034Z,99167.04
2023-05-03T12:03:38.794Z,99155.27
2023-05-03T12:06:13.775Z,99146.18
2023-05-03T12:08:52.860Z,99147.56
2023-05-03T12:11:28.256Z,99140.98
2023-05-03T12:14:22.066Z,99136.13
2023-05-03T12:16:56.993Z,99128.17
2023-05-03T12:19:34.396Z,99134.35
2023-05-03T12:22:26.131Z,99129.73
2023-05-03T12:24:59.294Z,99126.55
2023-05-03T12:27:32.750Z,99120.77
2023-05-03T12:30:10.123Z,99116.95
2023-05-03T12:32:44.380Z,99118.70
2023-05-03T12:35:20.066Z,99109.91
2023-05-03T12:38:01.650Z,99095.56
2023-05-03T12:40:41.539Z,99097.58
2023-05-03T12:43:17.835Z,99073.81
2023-05-03T12:45:54.695Z,99071.56
2023-05-03T12:48:46.214Z,99074.19
2023-05-03T12:51:26.038Z,99063.60
2023-05-03T12:54:01.774Z,99053.26
2023-05-03T12:56:37.560Z,99055.58
2023-05-03T12:59:31.742Z,99056.85
2023-05-03T13:03:12.980Z,99052.38
2023-05-03T13:05:00.121Z,99053.47
2023-05-03T13:07:42.359Z,99051.09
2023-05-03T13:12:57.196Z,99035.97
2023-05-03T13:15:29.639Z,99034.88
2023-05-03T13:18:04.979Z,99029.09
2023-05-03T13:20:38.944Z,99024.58
2023-05-03T13:23:14.704Z,99024.05
2023-05-03T13:25:54.279Z,99017.05
2023-05-03T13:28:27.275Z,99021.87
2023-05-03T13:30:59.481Z,99022.96
2023-05-03T13:33:32.036Z,99022.26
2023-05-03T13:36:08.577Z,99012.45
2023-05-03T13:38:56.324Z,99009.08
2023-05-03T13:41:28.580Z,99003.83
2023-05-03T13:44:00.846Z,98986.46
2023-05-03T13:46:33.097Z,98989.54
2023-05-03T13:49:07.452Z,98980.26
2023-05-03T13:51:42.852Z,98981.60
2023-05-03T13:54:15.097Z,98975.23
2023-05-03T13:56:47.465Z,98968.05
2023-05-03T13:59:19.716Z,98969.16
2023-05-03T14:01:52.612Z,98962.73
2023-05-03T14:04:27.424Z,98957.20
2023-05-03T14:07:03.037Z,98958.86
2023-05-03T14:09:39.570Z,98957.95
2023-05-03T14:12:12.279Z,98958.59
2023-05-03T14:14:44.420Z,98960.23
2023-05-03T14:17:17.143Z,98960.30
2023-05-03T14:19:49.932Z,98962.11
2023-05-03T14:22:23.219Z,98962.59
2023-05-03T14:24:56.781Z,98955.07
2023-05-03T14:27:30.998Z,98954.42
2023-05-03T14:30:06.192Z,98948.95
2023-05-03T14:32:43.634Z,98945.11
2023-05-03T14:35:18.401Z,98946.33
2023-05-03T14:37:53.016Z,98936.13
2023-05-03T14:40:25.473Z,98933.71
2023-05-03T14:42:57.868Z,98937.38
2023-05-03T14:45:30.596Z,98941.41
2023-05-03T14:48:03.543Z,98939.73
2023-05-03T14:50:35.952Z,98945.08
2023-05-03T14:53:10.764Z,98944.02
2023-05-03T14:55:43.093Z,98938.46
2023-05-03T14:58:17.246Z,98930.95
2023-05-03T15:00:49.587Z,98929.52
2023-05-03T15:03:22.074Z,98935.30
2023-05-03T15:05:54.652Z,98938.38
2023-05-03T15:08:27.927Z,98931.30
2023-05-03T15:11:00.233Z,98934.48
2023-05-03T15:13:36.314Z,98942.92
2023-05-03T15:16:10.375Z,98944.34
2023-05-03T15:18:44.026Z,98942.56
2023-05-03T15:21:16.841Z,98940.42
2023-05-03T15:23:49.544Z,98936.26
2023-05-03T15:26:22.755Z,98935.35
2023-05-03T15:28:54.946Z,98938.23
2023-05-03T15:31:27.226Z,98935.50
2023-05-03T15:34:02.593Z,98939.69
2023-05-03T15:36:37.861Z,98935.70
2023-05-03T15:39:10.396Z,98930.21
2023-05-03T15:41:42.785Z,98927.27
2023-05-03T15:44:15.129Z,98926.92
2023-05-03T15:46:47.588Z,98928.76
2023-05-03T15:49:19.705Z,98923.83
2023-05-03T15:51:51.908Z,98921.41
2023-05-03T15:54:23.933Z,98923.51
2023-05-03T15:56:56.602Z,98921.69
2023-05-03T15:59:28.951Z,98919.11
2023-05-03T16:02:01.304Z,98913.91
2023-05-03T16:04:37.913Z,98906.73
2023-05-03T16:07:10.061Z,98911.73
2023-05-03T16:09:43.236Z,98911.46
2023-05-03T16:12:15.354Z,98906.45
2023-05-03T16:14:47.464Z,98898.95
2023-05-03T16:17:19.581Z,98900.99
2023-05-03T16:19:51.731Z,98899.52
2023-05-03T16:22:23.962Z,98895.55
2023-05-03T16:24:56.015Z,98891.60
2023-05-03T16:27:28.198Z,98895.58
2023-05-03T16:30:01.894Z,98894.99
2023-05-03T16:32:35.179Z,98898.65
2023-05-03T16:35:08.378Z,98893.60
2023-05-03T16:37:41.900Z,98896.65
2023-05-03T16:40:14.520Z,98899.63
2023-05-03T16:42:49.452Z,98898.31
2023-05-03T16:45:21.956Z,98903.17
2023-05-03T16:47:54.467Z,98910.70
2023-05-03T16:50:26.870Z,98908.58
2023-05-03T16:52:59.010Z,98906.70
2023-05-03T16:55:31.394Z,98913.18
2023-05-03T16:58:03.348Z,98915.43
2023-05-03T17:00:35.563Z,98914.67
2023-05-03T17:03:08.319Z,98920.97
2023-05-03T17:05:40.587Z,98919.48
2023-05-03T17:08:13.637Z,98920.77
2023-05-03T17:10:46.040Z,98928.08
2023-05-03T17:13:18.577Z,98933.12
2023-05-03T17:15:50.742Z,98934.36
2023-05-03T17:18:22.853Z,98940.14
2023-05-03T17:20:59.844Z,98937.95
2023-05-03T17:23:35.900Z,98942.68
2023-05-03T17:26:10.232Z,98947.59
2023-05-03T17:28:43.023Z,98954.61
2023-05-03T17:31:15.064Z,98956.86
2023-05-03T17:33:47.249Z,98958.55
2023-05-03T17:36:22.126Z,98961.98
2023-05-03T17:38:55.167Z,98963.23
2023-05-03T17:41:27.513Z,98970.73
2023-05-03T17:43:59.560Z,98968.95
2023-05-03T17:46:33.106Z,98977.55
2023-05-03T17:49:08.506Z,98981.01
2023-05-03T17:51:41.262Z,98980.67
2023-05-03T17:54:13.534Z,98978.02
2023-05-03T17:56:47.842Z,98985.81
2023-05-03T17:59:19.922Z,98989.61
2023-05-03T18:01:54.321Z,98996.71
2023-05-03T18:04:31.720Z,99009.38
2023-05-03T18:07:03.864Z,99016.45
2023-05-03T18:09:36.200Z,99022.35
2023-05-03T18:12:09.323Z,99032.26
2023-05-03T18:14:41.786Z,99038.00
2023-05-03T18:17:16.654Z,99047.85
2023-05-03T18:19:48.849Z,99053.30
2023-05-03T18:22:23.402Z,99063.27
2023-05-03T18:25:01.893Z,99071.57
2023-05-03T18:27:36.796Z,99077.31
2023-05-03T18:30:10.648Z,99076.94
2023-05-03T18:32:43.297Z,99085.87
2023-05-03T18:35:15.496Z,99088.02
2023-05-03T18:37:51.452Z,99091.59
2023-05-03T18:40:25.555Z,99098.64
2023-05-03T18:42:58.139Z,99104.50
2023-05-03T18:45:30.699Z,99105.35
2023-05-03T18:48:02.935Z,99113.34
2023-05-03T18:50:38.351Z,99117.45
2023-05-03T18:53:12.071Z,99127.29
2023-05-03T18:55:47.198Z,99131.79
2023-05-03T18:58:19.324Z,99137.00
2023-05-03T19:00:52.528Z,99143.54
2023-05-03T19:03:24.839Z,99149.73
2023-05-03T19:06:00.942Z,99155.24
2023-05-03T19:11:41.344Z,99176.27
2023-05-03T19:14:13.634Z,99184.23
2023-05-03T19:16:47.297Z,99192.25
2023-05-03T19:19:20.211Z,99195.83
2023-05-03T19:21:52.879Z,99203.65
2023-05-03T19:24:25.071Z,99207.36
2023-05-03T19:26:58.942Z,99210.58
2023-05-03T19:29:31.183Z,99215.45
2023-05-03T19:32:03.379Z,99217.02
2023-05-03T19:34:37.260Z,99223.73
2023-05-03T19:37:09.902Z,99229.34
2023-05-03T19:39:42.133Z,99235.17
2023-05-03T19:42:16.520Z,99240.98
2023-05-03T19:44:48.619Z,99243.46
2023-05-03T19:47:20.788Z,99247.02
2023-05-03T19:49:52.881Z,99254.01
2023-05-03T19:52:25.267Z,99259.98
2023-05-03T19:54:57.800Z,99262.75
2023-05-03T19:57:30.036Z,99263.64
2023-05-03T20:00:02.540Z,99268.52
2023-05-03T20:02:38.117Z,99267.28
2023-05-03T20:05:11.392Z,99266.13
2023-05-03T20:07:43.669Z,99261.36
2023-05-03T20:10:17.865Z,99258.40
2023-05-03T20:12:50.088Z,99259.19
2023-05-03T20:15:24.423Z,99256.72
2023-05-03T20:17:57.617Z,99258.92
2023-05-03T20:20:30.965Z,99259.39
2023-05-03T20:23:03.191Z,99262.92
2023-05-03T20:25:35.364Z,99268.67
2023-05-03T20:28:08.245Z,99269.37
2023-05-03T20:30:40.440Z,99270.79
2023-05-03T20:33:12.731Z,99274.55
2023-05-03T20:35:45.120Z,99275.57
2023-05-03T20:38:17.366Z,99277.45
2023-05-03T20:40:50.069Z,99283.23
2023-05-03T20:43:22.435Z,99280.14
2023-05-03T20:45:54.734Z,99279.67
2023-05-03T20:48:27.358Z,99281.74
2023-05-03T20:51:00.909Z,99280.92
2023-05-03T20:53:33.116Z,99280.15
2023-05-03T20:56:06.476Z,99275.20
2023-05-03T20:58:38.680Z,99276.27
2023-05-03T21:01:10.889Z,99272.77
2023-05-03T21:03:43.144Z,99272.66
2023-05-03T21:06:15.346Z,99272.91
2023-05-03T21:08:48.164Z,99275.65
2023-05-03T21:11:20.373Z,99276.44
2023-05-03T21:13:52.604Z,99277.02
2023-05-03T21:16:25.284Z,99277.20
2023-05-03T21:18:57.533Z,99272.66
2023-05-03T21:21:30.158Z,99274.27
2023-05-03T21:24:02.341Z,99271.59
2023-05-03T21:26:35.553Z,99277.83
2023-05-03T21:29:08.380Z,99279.13
2023-05-03T21:31:40.696Z,99276.34
2023-05-03T21:34:15.080Z,99274.95
2023-05-03T21:36:47.256Z,99275.38
2023-05-03T21:39:20.751Z,99276.84
2023-05-03T21:41:52.995Z,99278.73
2023-05-03T21:44:25.201Z,99279.86
2023-05-03T21:46:57.619Z,99280.15
2023-05-03T21:49:29.855Z,99280.90
2023-05-03T21:52:02.590Z,99276.43
2023-05-03T21:54:34.810Z,99278.86
2023-05-03T21:57:06.986Z,99285.81
2023-05-03T21:59:39.172Z,99284.88
2023-05-03T22:02:11.253Z,99283.27
2023-05-03T22:04:43.617Z,99278.35
2023-05-03T22:07:15.762Z,99278.59
2023-05-03T22:09:50.498Z,99271.14
2023-05-03T22:12:24.523Z,99271.28
2023-05-03T22:14:57.465Z,99271.17
2023-05-03T22:17:30.665Z,99272.52
2023-05-03T22:20:03.509Z,99268.98
2023-05-03T22:22:38.715Z,99268.92
2023-05-03T22:25:23.175Z,99272.65
2023-05-03T22:27:55.987Z,99269.30
2023-05-03T22:30:28.651Z,99264.63
2023-05-03T22:33:00.797Z,99265.70
2023-05-03T22:35:35.432Z,99263.70
2023-05-03T22:38:07.661Z,99262.85
2023-05-03T22:40:39.905Z,99266.34
2023-05-03T22:43:12.058Z,99264.91
2023-05-03T22:45:44.410Z,99266.27
2023-05-03T22:48:16.579Z,99265.88
2023-05-03T22:50:48.806Z,99262.26
2023-05-03T22:53:20.985Z,99259.70
2023-05-03T22:56:00.896Z,99262.62
2023-05-03T22:58:33.661Z,99259.67
2023-05-03T23:01:10.397Z,99259.86
2023-05-03T23:03:42.832Z,99256.57
2023-05-03T23:06:15.673Z,99258.34
2023-05-03T23:08:47.868Z,99260.77
2023-05-03T23:11:21.268Z,99254.02
2023-05-03T23:13:53.362Z,99254.24
2023-05-03T23:16:25.932Z,99254.52
2023-05-03T23:18:58.229Z,99257.10
2023-05-03T23:21:30.321Z,99251.27
2023-05-03T23:24:02.561Z,99247.11
2023-05-03T23:26:34.896Z,99249.20
2023-05-03T23:29:08.411Z,99250.78
2023-05-03T23:31:41.171Z,99249.80
2023-05-03T23:34:13.598Z,99247.02
2023-05-03T23:36:45.788Z,99241.04
2023-05-03T23:39:18.072Z,99241.34
2023-05-03T23:41:50.407Z,99242.92
2023-05-03T23:44:22.843Z,99240.36
2023-05-03T23:46:55.402Z,99238.94
2023-05-03T23:49:27.881Z,99245.39
2023-05-03T23:52:00.092Z,99250.95
2023-05-03T23:54:32.328Z,99252.52
2023-05-03T23:57:04.954Z,99249.23
2023-05-03T23:59:37.368Z,99244.80
